createdAt,value
2024-02-16T00:02:09.966Z,96677.19
2024-02-16T00:04:36.974Z,96681.81
2024-02-16T00:07:03.815Z,96686.84
2024-02-16T00:09:30.546Z,96680.13
2024-02-16T00:11:57.269Z,96678.63
2024-02-16T00:14:23.895Z,96688.16
2024-02-16T00:16:50.763Z,96689.03
2024-02-16T00:19:17.736Z,96682.53
2024-02-16T00:21:44.510Z,96679.56
2024-02-16T00:24:11.470Z,96670.38
2024-02-16T00:26:40.936Z,96669.66
2024-02-16T00:29:07.916Z,96671.06
2024-02-16T00:31:34.557Z,96675.50
2024-02-16T00:34:01.384Z,96680.56
2024-02-16T00:36:29.295Z,96681.97
2024-02-16T00:38:56.203Z,96677.34
2024-02-16T00:41:24.325Z,96680.84
2024-02-16T00:43:53.388Z,96673.84
2024-02-16T00:46:20.177Z,96679.88
2024-02-16T00:48:48.052Z,96681.97
2024-02-16T00:51:15.143Z,96687.88
2024-02-16T00:53:41.879Z,96680.38
2024-02-16T00:56:08.414Z,96681.22
2024-02-16T00:58:35.530Z,96677.72
2024-02-16T01:01:02.233Z,96677.66
2024-02-16T01:03:28.880Z,96675.84
2024-02-16T01:05:55.639Z,96674.25
2024-02-16T01:08:24.415Z,96670.22
2024-02-16T01:10:51.072Z,96673.69
2024-02-16T01:13:17.880Z,96664.06
2024-02-16T01:15:45.131Z,96675.53
2024-02-16T01:18:13.012Z,96665.34
2024-02-16T01:20:39.707Z,96673.00
2024-02-16T01:23:06.279Z,96674.44
2024-02-16T01:25:33.236Z,96671.16
2024-02-16T01:28:00.236Z,96667.47
2024-02-16T01:30:26.930Z,96667.69
2024-02-16T01:32:53.574Z,96666.88
2024-02-16T01:35:21.260Z,96668.28
2024-02-16T01:37:49.157Z,96668.81
2024-02-16T01:40:18.198Z,96668.03
2024-02-16T01:42:45.190Z,96667.94
2024-02-16T01:45:16.651Z,96666.78
2024-02-16T01:47:45.314Z,96671.25
2024-02-16T01:50:12.501Z,96676.41
2024-02-16T01:52:39.352Z,96671.66
2024-02-16T01:55:10.084Z,96675.88
2024-02-16T01:57:48.261Z,96678.34
2024-02-16T02:00:18.681Z,96668.84
2024-02-16T02:02:47.650Z,96674.09
2024-02-16T02:05:16.159Z,96673.53
2024-02-16T02:07:44.089Z,96675.47
2024-02-16T02:10:13.990Z,96672.13
2024-02-16T02:12:41.382Z,96674.22
2024-02-16T02:15:08.655Z,96683.38
2024-02-16T02:17:36.131Z,96680.75
2024-02-16T02:20:05.188Z,96683.06
2024-02-16T02:22:32.080Z,96678.34
2024-02-16T02:24:58.608Z,96674.34
2024-02-16T02:27:25.323Z,96673.63
2024-02-16T02:29:52.353Z,96671.25
2024-02-16T02:32:19.049Z,96670.53
2024-02-16T02:34:45.711Z,96667.06
2024-02-16T02:37:12.497Z,96670.88
2024-02-16T02:39:39.224Z,96672.22
2024-02-16T02:42:06.115Z,96664.81
2024-02-16T02:44:33.966Z,96672.56
2024-02-16T02:47:00.675Z,96661.50
2024-02-16T02:49:27.286Z,96661.00
2024-02-16T02:51:53.954Z,96662.72
2024-02-16T02:54:20.669Z,96654.88
2024-02-16T02:56:47.577Z,96673.19
2024-02-16T02:59:14.224Z,96659.06
2024-02-16T03:01:41.039Z,96671.19
2024-02-16T03:04:08.366Z,96663.50
2024-02-16T03:06:35.149Z,96665.25
2024-02-16T03:09:01.902Z,96665.50
2024-02-16T03:11:28.515Z,96662.47
2024-02-16T03:13:55.167Z,96661.06
2024-02-16T03:16:21.794Z,96658.00
2024-02-16T03:18:48.715Z,96655.56
2024-02-16T03:21:19.158Z,96655.44
2024-02-16T03:23:46.125Z,96655.88
2024-02-16T03:26:16.513Z,96663.97
2024-02-16T03:28:47.804Z,96669.97
2024-02-16T03:31:23.208Z,96670.59
2024-02-16T03:33:51.359Z,96676.44
2024-02-16T03:36:20.170Z,96674.81
2024-02-16T03:38:48.303Z,96669.75
2024-02-16T03:41:16.590Z,96676.63
2024-02-16T03:43:44.009Z,96681.72
2024-02-16T03:46:11.053Z,96673.97
2024-02-16T03:48:38.068Z,96665.34
2024-02-16T03:51:05.048Z,96668.59
2024-02-16T03:53:31.702Z,96672.47
2024-02-16T03:55:58.477Z,96670.88
2024-02-16T03:58:25.815Z,96660.44
2024-02-16T04:00:56.074Z,96659.09
2024-02-16T04:03:22.943Z,96663.91
2024-02-16T04:05:49.736Z,96671.34
2024-02-16T04:08:16.459Z,96670.75
2024-02-16T04:10:43.204Z,96667.53
2024-02-16T04:13:09.974Z,96683.69
2024-02-16T04:15:36.754Z,96676.47
2024-02-16T04:18:03.842Z,96675.47
2024-02-16T04:20:30.555Z,96672.94
2024-02-16T04:22:57.361Z,96673.50
2024-02-16T04:25:24.744Z,96666.38
2024-02-16T04:27:51.959Z,96666.19
2024-02-16T04:30:18.712Z,96667.72
2024-02-16T04:32:45.321Z,96661.47
2024-02-16T04:35:15.966Z,96668.00
2024-02-16T04:37:42.705Z,96667.41
2024-02-16T04:40:09.513Z,96671.81
2024-02-16T04:42:36.254Z,96662.09
2024-02-16T04:45:06.537Z,96661.91
2024-02-16T04:47:33.573Z,96659.22
2024-02-16T04:50:00.232Z,96661.91
2024-02-16T04:52:30.321Z,96671.38
2024-02-16T04:54:57.468Z,96674.72
2024-02-16T04:57:24.110Z,96674.50
2024-02-16T04:59:50.783Z,96674.19
2024-02-16T05:02:17.460Z,96666.63
2024-02-16T05:04:44.110Z,96675.81
2024-02-16T05:07:10.852Z,96672.03
2024-02-16T05:09:37.642Z,96686.22
2024-02-16T05:12:04.984Z,96684.84
2024-02-16T05:14:31.729Z,96682.28
2024-02-16T05:17:00.035Z,96681.56
2024-02-16T05:19:27.103Z,96678.34
2024-02-16T05:21:53.809Z,96674.16
2024-02-16T05:24:21.743Z,96675.00
2024-02-16T05:26:48.957Z,96680.91
2024-02-16T05:29:15.500Z,96684.25
2024-02-16T05:31:42.178Z,96675.28
2024-02-16T05:34:08.908Z,96674.28
2024-02-16T05:36:37.662Z,96674.22
2024-02-16T05:39:27.839Z,96676.34
2024-02-16T05:41:55.042Z,96682.47
2024-02-16T05:44:21.757Z,96670.47
2024-02-16T05:46:48.828Z,96667.47
2024-02-16T05:49:17.373Z,96675.25
2024-02-16T05:52:01.317Z,96667.88
2024-02-16T05:54:28.490Z,96667.69
2024-02-16T05:56:55.258Z,96666.84
2024-02-16T05:59:23.362Z,96665.84
2024-02-16T06:01:50.224Z,96665.00
2024-02-16T06:04:17.788Z,96659.38
2024-02-16T06:06:44.609Z,96675.19
2024-02-16T06:09:11.345Z,96668.59
2024-02-16T06:11:39.206Z,96670.09
2024-02-16T06:14:05.828Z,96671.84
2024-02-16T06:16:32.526Z,96674.66
2024-02-16T06:18:59.162Z,96672.94
2024-02-16T06:21:25.887Z,96674.28
2024-02-16T06:23:52.552Z,96680.97
2024-02-16T06:26:19.109Z,96675.97
2024-02-16T06:28:45.692Z,96685.63
2024-02-16T06:31:13.644Z,96689.00
2024-02-16T06:33:40.371Z,96680.69
2024-02-16T06:36:08.353Z,96679.50
2024-02-16T06:38:35.006Z,96678.53
2024-02-16T06:41:01.681Z,96685.25
2024-02-16T06:43:28.265Z,96695.38
2024-02-16T06:45:56.674Z,96697.19
2024-02-16T06:48:23.952Z,96700.03
2024-02-16T06:50:50.705Z,96697.25
2024-02-16T06:53:17.375Z,96712.06
2024-02-16T06:55:43.965Z,96710.00
2024-02-16T06:58:10.578Z,96713.66
2024-02-16T07:00:37.183Z,96717.53
2024-02-16T07:03:04.087Z,96720.75
2024-02-16T07:05:34.030Z,96724.16
2024-02-16T07:08:02.653Z,96724.41
2024-02-16T07:10:29.268Z,96731.78
2024-02-16T07:12:55.886Z,96729.41
2024-02-16T07:15:22.427Z,96726.81
2024-02-16T07:17:49.164Z,96724.34
2024-02-16T07:20:16.881Z,96735.06
2024-02-16T07:22:43.733Z,96732.22
2024-02-16T07:25:11.214Z,96740.50
2024-02-16T07:27:37.932Z,96740.28
2024-02-16T07:30:05.499Z,96736.81
2024-02-16T07:32:32.199Z,96743.00
2024-02-16T07:34:58.768Z,96736.16
2024-02-16T07:37:25.415Z,96737.47
2024-02-16T07:39:53.158Z,96736.63
2024-02-16T07:42:19.839Z,96738.59
2024-02-16T07:44:46.373Z,96744.75
2024-02-16T07:47:13.710Z,96744.31
2024-02-16T07:49:43.138Z,96738.19
2024-02-16T07:52:10.262Z,96745.59
2024-02-16T07:54:37.340Z,96747.06
2024-02-16T07:57:05.392Z,96742.94
2024-02-16T07:59:32.080Z,96750.97
2024-02-16T08:01:59.725Z,96750.84
2024-02-16T08:04:26.333Z,96737.91
2024-02-16T08:06:53.108Z,96748.34
2024-02-16T08:09:19.925Z,96752.28
2024-02-16T08:11:46.598Z,96759.72
2024-02-16T08:14:13.160Z,96760.06
2024-02-16T08:16:39.737Z,96760.34
2024-02-16T08:19:06.968Z,96768.66
2024-02-16T08:21:33.802Z,96767.81
2024-02-16T08:24:00.553Z,96781.56
2024-02-16T08:26:27.963Z,96771.84
2024-02-16T08:28:54.662Z,96775.78
2024-02-16T08:31:21.207Z,96782.22
2024-02-16T08:33:48.535Z,96784.63
2024-02-16T08:36:16.200Z,96779.16
2024-02-16T08:38:42.895Z,96784.34
2024-02-16T08:41:09.488Z,96778.88
2024-02-16T08:43:36.198Z,96787.50
2024-02-16T08:46:02.696Z,96789.78
2024-02-16T08:48:29.456Z,96791.16
2024-02-16T08:50:56.105Z,96795.13
2024-02-16T08:53:22.706Z,96791.94
2024-02-16T08:55:49.316Z,96790.66
2024-02-16T08:58:15.853Z,96801.16
2024-02-16T09:00:42.578Z,96800.25
2024-02-16T09:03:09.914Z,96799.56
2024-02-16T09:05:37.915Z,96797.16
2024-02-16T09:08:06.004Z,96806.94
2024-02-16T09:10:32.706Z,96807.44
2024-02-16T09:12:59.341Z,96807.78
2024-02-16T09:15:25.968Z,96810.03
2024-02-16T09:17:52.752Z,96811.56
2024-02-16T09:20:23.477Z,96819.66
2024-02-16T09:22:50.347Z,96820.81
2024-02-16T09:25:16.925Z,96824.28
2024-02-16T09:27:46.089Z,96829.91
2024-02-16T09:30:14.050Z,96827.03
2024-02-16T09:32:41.927Z,96827.34
2024-02-16T09:35:09.550Z,96833.78
2024-02-16T09:37:38.231Z,96833.22
2024-02-16T09:40:06.662Z,96833.50
2024-02-16T09:42:38.893Z,96840.47
2024-02-16T09:45:08.194Z,96850.72
2024-02-16T09:47:36.122Z,96845.69
2024-02-16T09:50:03.980Z,96853.91
2024-02-16T09:52:31.180Z,96853.66
2024-02-16T09:54:57.875Z,96858.81
2024-02-16T09:57:24.448Z,96858.91
2024-02-16T09:59:51.272Z,96864.00
2024-02-16T10:02:18.410Z,96866.19
2024-02-16T10:04:45.597Z,96867.47
2024-02-16T10:07:13.678Z,96866.09
2024-02-16T10:09:43.957Z,96870.44
2024-02-16T10:12:11.252Z,96874.59
2024-02-16T10:14:39.131Z,96874.72
2024-02-16T10:17:08.432Z,96880.50
2024-02-16T10:19:42.562Z,96878.09
2024-02-16T10:22:14.299Z,96885.06
2024-02-16T10:24:43.756Z,96884.94
2024-02-16T10:27:18.857Z,96885.78
2024-02-16T10:29:50.979Z,96894.03
2024-02-16T10:32:18.224Z,96889.59
2024-02-16T10:34:47.491Z,96900.63
2024-02-16T10:37:15.954Z,96907.06
2024-02-16T10:39:44.050Z,96907.06
2024-02-16T10:42:12.912Z,96918.22
2024-02-16T10:44:41.354Z,96915.97
2024-02-16T10:47:08.006Z,96916.72
2024-02-16T10:49:34.902Z,96923.69
2024-02-16T10:52:04.064Z,96919.06
2024-02-16T10:54:34.970Z,96923.69
2024-02-16T10:57:01.963Z,96917.44
2024-02-16T10:59:42.030Z,96923.28
2024-02-16T11:02:08.664Z,96920.88
2024-02-16T11:04:42.121Z,96921.59
2024-02-16T11:07:27.576Z,96917.94
2024-02-16T11:09:54.460Z,96925.22
2024-02-16T11:12:22.920Z,96924.34
2024-02-16T11:14:56.433Z,96922.97
2024-02-16T11:17:24.792Z,96933.03
2024-02-16T11:19:55.542Z,96923.28
2024-02-16T11:22:22.399Z,96924.09
2024-02-16T11:24:50.327Z,96921.59
2024-02-16T11:27:21.165Z,96931.81
2024-02-16T11:29:49.790Z,96929.00
2024-02-16T11:32:16.805Z,96934.56
2024-02-16T11:34:43.646Z,96923.00
2024-02-16T11:37:13.620Z,96923.97
2024-02-16T11:39:41.961Z,96925.06
2024-02-16T11:42:14.461Z,96923.81
2024-02-16T11:44:51.378Z,96918.16
2024-02-16T11:47:29.686Z,96916.41
2024-02-16T11:50:03.802Z,96918.50
2024-02-16T11:52:30.700Z,96921.28
2024-02-16T11:55:01.076Z,96914.81
2024-02-16T11:57:28.892Z,96911.19
2024-02-16T11:59:56.169Z,96916.94
2024-02-16T12:02:25.975Z,96910.38
2024-02-16T12:05:04.008Z,96909.94
2024-02-16T12:07:32.598Z,96911.81
2024-02-16T12:10:00.914Z,96904.13
2024-02-16T12:12:28.952Z,96912.06
2024-02-16T12:14:56.794Z,96917.41
2024-02-16T12:17:23.790Z,96916.72
2024-02-16T12:19:52.711Z,96909.84
2024-02-16T12:22:20.653Z,96913.47
2024-02-16T12:24:48.808Z,96915.44
2024-02-16T12:27:18.768Z,96916.41
2024-02-16T12:29:45.690Z,96922.97
2024-02-16T12:32:12.512Z,96923.72
2024-02-16T12:34:39.414Z,96925.72
2024-02-16T12:37:08.512Z,96931.88
2024-02-16T12:39:35.957Z,96929.66
2024-02-16T12:42:02.981Z,96933.69
2024-02-16T12:44:29.745Z,96944.09
2024-02-16T12:46:56.487Z,96938.31
2024-02-16T12:49:23.872Z,96941.44
2024-02-16T12:51:51.661Z,96936.72
2024-02-16T12:54:21.814Z,96935.22
2024-02-16T12:56:49.418Z,96938.88
2024-02-16T12:59:16.108Z,96947.34
2024-02-16T13:01:44.170Z,96950.78
2024-02-16T13:04:11.021Z,96944.50
2024-02-16T13:06:38.920Z,96940.47
2024-02-16T13:09:06.704Z,96950.41
2024-02-16T13:11:35.121Z,96948.00
2024-02-16T13:14:02.032Z,96954.22
2024-02-16T13:16:28.741Z,96961.44
2024-02-16T13:18:55.374Z,96959.69
2024-02-16T13:21:22.184Z,96960.75
2024-02-16T13:23:49.182Z,96960.22
2024-02-16T13:26:16.155Z,96962.03
2024-02-16T13:28:42.844Z,96972.75
2024-02-16T13:31:11.338Z,96969.13
2024-02-16T13:33:38.750Z,96964.94
2024-02-16T13:36:06.609Z,96970.56
2024-02-16T13:38:33.291Z,96973.88
2024-02-16T13:41:00.082Z,96978.69
2024-02-16T13:43:27.334Z,96983.00
2024-02-16T13:45:57.219Z,96974.16
2024-02-16T13:48:24.090Z,96981.63
2024-02-16T13:50:52.271Z,96990.56
2024-02-16T13:53:21.769Z,96982.50
2024-02-16T13:55:49.879Z,96989.38
2024-02-16T13:58:16.985Z,96990.53
2024-02-16T14:00:43.996Z,96992.50
2024-02-16T14:03:12.981Z,96997.66
2024-02-16T14:05:40.389Z,96995.41
2024-02-16T14:08:09.771Z,96998.88
2024-02-16T14:10:37.283Z,97009.09
2024-02-16T14:13:04.753Z,97004.38
2024-02-16T14:15:33.170Z,97009.22
2024-02-16T14:18:04.548Z,97008.44
2024-02-16T14:20:36.059Z,97015.91
2024-02-16T14:23:03.975Z,97015.50
2024-02-16T14:25:30.715Z,97016.53
2024-02-16T14:27:59.370Z,97016.97
2024-02-16T14:30:26.386Z,97020.94
2024-02-16T14:32:55.236Z,97019.22
2024-02-16T14:35:23.560Z,97019.22
2024-02-16T14:37:50.845Z,97017.88
2024-02-16T14:40:17.804Z,97035.66
2024-02-16T14:42:44.601Z,97031.75
2024-02-16T14:45:20.459Z,97032.72
2024-02-16T14:47:49.062Z,97032.25
2024-02-16T14:50:15.866Z,97033.59
2024-02-16T14:55:14.885Z,97030.72
2024-02-16T14:57:42.308Z,97032.94
2024-02-16T15:00:10.727Z,97045.41
2024-02-16T15:02:38.559Z,97044.44
2024-02-16T15:05:06.628Z,97048.13
2024-02-16T15:07:33.402Z,97037.84
2024-02-16T15:10:00.618Z,97053.53
2024-02-16T15:12:28.522Z,97051.34
2024-02-16T15:14:56.051Z,97054.91
2024-02-16T15:17:23.111Z,97060.13
2024-02-16T15:19:50.147Z,97063.16
2024-02-16T15:22:17.111Z,97059.94
2024-02-16T15:24:43.986Z,97055.19
2024-02-16T15:27:11.693Z,97075.19
2024-02-16T15:29:38.460Z,97060.44
2024-02-16T15:32:05.201Z,97070.63
2024-02-16T15:34:31.951Z,97074.56
2024-02-16T15:36:59.831Z,97075.72
2024-02-16T15:39:26.685Z,97075.50
2024-02-16T15:41:56.332Z,97071.72
2024-02-16T15:44:23.204Z,97075.94
2024-02-16T15:46:49.857Z,97072.75
2024-02-16T15:49:16.951Z,97073.69
2024-02-16T15:51:43.745Z,97077.31
2024-02-16T15:54:10.465Z,97085.03
2024-02-16T15:56:37.953Z,97081.22
2024-02-16T15:59:04.640Z,97076.66
2024-02-16T16:01:33.741Z,97086.72
2024-02-16T16:04:00.797Z,97086.72
2024-02-16T16:06:27.789Z,97097.13
2024-02-16T16:08:57.676Z,97093.47
2024-02-16T16:11:24.528Z,97098.44
2024-02-16T16:13:51.223Z,97092.91
2024-02-16T16:16:18.118Z,97101.81
2024-02-16T16:18:45.150Z,97107.22
2024-02-16T16:21:11.985Z,97100.53
2024-02-16T16:23:38.742Z,97103.38
2024-02-16T16:26:06.113Z,97110.84
2024-02-16T16:28:33.416Z,97107.94
2024-02-16T16:31:00.097Z,97121.19
2024-02-16T16:33:26.908Z,97126.25
2024-02-16T16:35:54.361Z,97125.53
2024-02-16T16:38:21.334Z,97135.28
2024-02-16T16:40:48.236Z,97133.56
2024-02-16T16:43:15.509Z,97131.66
2024-02-16T16:45:43.556Z,97134.91
2024-02-16T16:48:11.176Z,97146.34
2024-02-16T16:50:38.605Z,97137.69
2024-02-16T16:53:06.088Z,97142.47
2024-02-16T16:55:33.667Z,97142.59
2024-02-16T16:58:01.132Z,97150.06
2024-02-16T17:00:28.626Z,97148.72
2024-02-16T17:02:55.617Z,97149.09
2024-02-16T17:05:22.295Z,97149.56
2024-02-16T17:07:49.588Z,97154.66
2024-02-16T17:10:17.247Z,97161.03
2024-02-16T17:12:46.001Z,97160.66
2024-02-16T17:15:19.827Z,97169.06
2024-02-16T17:17:53.934Z,97172.34
2024-02-16T17:20:26.095Z,97175.91
2024-02-16T17:22:54.756Z,97176.03
2024-02-16T17:25:23.342Z,97177.00
2024-02-16T17:27:50.243Z,97179.88
2024-02-16T17:30:20.917Z,97179.75
2024-02-16T17:32:50.083Z,97185.66
2024-02-16T17:35:17.895Z,97186.50
2024-02-16T17:37:47.794Z,97190.47
2024-02-16T17:40:15.085Z,97196.22
2024-02-16T17:42:42.461Z,97202.75
2024-02-16T17:45:10.183Z,97201.06
2024-02-16T17:47:39.147Z,97221.72
2024-02-16T17:50:07.555Z,97206.88
2024-02-16T17:52:34.491Z,97206.84
2024-02-16T17:55:05.564Z,97214.28
2024-02-16T17:57:35.238Z,97212.69
2024-02-16T18:00:02.108Z,97213.03
2024-02-16T18:02:39.570Z,97223.38
2024-02-16T18:05:11.236Z,97218.75
2024-02-16T18:07:38.837Z,97232.03
2024-02-16T18:10:07.612Z,97228.09
2024-02-16T18:12:36.272Z,97234.38
2024-02-16T18:15:05.193Z,97243.28
2024-02-16T18:17:32.357Z,97245.66
2024-02-16T18:19:59.271Z,97251.31
2024-02-16T18:22:26.149Z,97254.03
2024-02-16T18:24:52.893Z,97253.34
2024-02-16T18:27:19.912Z,97255.63
2024-02-16T18:29:46.765Z,97260.41
2024-02-16T18:32:13.653Z,97265.97
2024-02-16T18:34:40.787Z,97270.19
2024-02-16T18:37:07.768Z,97271.78
2024-02-16T18:39:35.376Z,97269.03
2024-02-16T18:42:02.505Z,97277.81
2024-02-16T18:44:29.375Z,97277.13
2024-02-16T18:46:56.821Z,97279.72
2024-02-16T18:49:23.899Z,97279.94
2024-02-16T18:51:50.734Z,97278.28
2024-02-16T18:54:17.298Z,97284.38
2024-02-16T18:56:44.012Z,97284.22
2024-02-16T18:59:10.855Z,97293.16
2024-02-16T19:01:38.432Z,97294.88
2024-02-16T19:04:05.296Z,97298.34
2024-02-16T19:06:33.156Z,97290.75
2024-02-16T19:09:00.186Z,97302.59
2024-02-16T19:11:27.509Z,97304.84
2024-02-16T19:13:54.291Z,97307.31
2024-02-16T19:16:20.806Z,97306.47
2024-02-16T19:18:47.684Z,97310.41
2024-02-16T19:21:14.628Z,97314.06
2024-02-16T19:23:41.371Z,97314.56
2024-02-16T19:26:10.294Z,97315.25
2024-02-16T19:28:40.365Z,97331.19
2024-02-16T19:31:09.190Z,97330.69
2024-02-16T19:33:37.186Z,97325.16
2024-02-16T19:36:05.118Z,97329.22
2024-02-16T19:38:32.824Z,97336.31
2024-02-16T19:41:00.028Z,97348.28
2024-02-16T19:43:29.143Z,97362.88
2024-02-16T19:45:56.417Z,97367.25
2024-02-16T19:48:23.953Z,97377.25
2024-02-16T19:50:51.534Z,97385.50
2024-02-16T19:53:19.137Z,97386.97
2024-02-16T19:55:47.384Z,97392.47
2024-02-16T19:58:14.392Z,97399.47
2024-02-16T20:00:42.285Z,97406.31
2024-02-16T20:03:09.676Z,97417.63
2024-02-16T20:05:36.319Z,97418.63
2024-02-16T20:08:03.090Z,97427.84
2024-02-16T20:10:29.608Z,97435.97
2024-02-16T20:12:56.468Z,97438.47
2024-02-16T20:15:29.971Z,97436.47
2024-02-16T20:18:02.729Z,97430.00
2024-02-16T20:20:29.674Z,97447.56
2024-02-16T20:22:56.849Z,97444.81
2024-02-16T20:25:23.994Z,97449.88
2024-02-16T20:27:51.231Z,97454.34
2024-02-16T20:30:18.997Z,97456.34
2024-02-16T20:32:46.976Z,97458.50
2024-02-16T20:35:14.794Z,97467.03
2024-02-16T20:37:41.752Z,97475.53
2024-02-16T20:40:08.650Z,97486.13
2024-02-16T20:42:35.325Z,97479.88
2024-02-16T20:45:02.122Z,97478.91
2024-02-16T20:47:28.881Z,97490.66
2024-02-16T20:49:55.527Z,97486.78
2024-02-16T20:52:23.825Z,97502.22
2024-02-16T20:54:50.528Z,97503.88
2024-02-16T20:57:17.197Z,97505.66
2024-02-16T20:59:43.894Z,97502.19
2024-02-16T21:02:10.443Z,97512.16
2024-02-16T21:04:37.605Z,97517.66
2024-02-16T21:07:05.170Z,97518.16
2024-02-16T21:09:32.649Z,97517.94
2024-02-16T21:11:59.655Z,97522.00
2024-02-16T21:14:26.501Z,97529.03
2024-02-16T21:16:53.820Z,97529.19
2024-02-16T21:19:21.905Z,97536.28
2024-02-16T21:21:49.325Z,97533.00
2024-02-16T21:24:22.164Z,97539.50
2024-02-16T21:26:50.024Z,97545.59
2024-02-16T21:29:19.762Z,97542.63
2024-02-16T21:31:46.939Z,97542.72
2024-02-16T21:34:14.207Z,97555.59
2024-02-16T21:36:42.125Z,97560.16
2024-02-16T21:39:10.125Z,97561.66
2024-02-16T21:41:37.298Z,97561.50
2024-02-16T21:44:07.295Z,97572.97
2024-02-16T21:46:36.804Z,97575.31
2024-02-16T21:49:08.329Z,97579.28
2024-02-16T21:51:37.189Z,97589.19
2024-02-16T21:54:05.547Z,97583.72
2024-02-16T21:56:32.632Z,97590.22
2024-02-16T21:58:59.362Z,97595.22
2024-02-16T22:01:26.936Z,97594.44
2024-02-16T22:03:55.174Z,97603.50
2024-02-16T22:06:27.687Z,97606.53
2024-02-16T22:08:55.323Z,97605.97
2024-02-16T22:11:23.459Z,97611.78
2024-02-16T22:13:50.684Z,97616.69
2024-02-16T22:16:19.068Z,97624.25
2024-02-16T22:18:46.533Z,97626.31
2024-02-16T22:21:13.825Z,97620.66
2024-02-16T22:23:41.228Z,97620.00
2024-02-16T22:26:08.989Z,97631.09
2024-02-16T22:28:37.563Z,97640.25
2024-02-16T22:31:04.947Z,97630.56
2024-02-16T22:33:32.208Z,97636.00
2024-02-16T22:36:00.616Z,97637.25
2024-02-16T22:38:33.650Z,97643.72
2024-02-16T22:41:00.920Z,97645.41
2024-02-16T22:43:27.650Z,97647.16
2024-02-16T22:45:54.338Z,97645.75
2024-02-16T22:48:21.163Z,97654.94
2024-02-16T22:50:48.320Z,97661.03
2024-02-16T22:53:15.185Z,97659.34
2024-02-16T22:55:41.959Z,97660.75
2024-02-16T22:58:11.868Z,97664.13
2024-02-16T23:00:42.985Z,97660.75
2024-02-16T23:03:13.406Z,97668.47
2024-02-16T23:05:40.561Z,97668.31
2024-02-16T23:08:08.405Z,97671.19
2024-02-16T23:10:36.875Z,97675.28
2024-02-16T23:13:04.056Z,97678.56
2024-02-16T23:15:31.379Z,97680.94
2024-02-16T23:17:58.023Z,97683.28
2024-02-16T23:20:24.766Z,97690.66
2024-02-16T23:23:11.442Z,97690.09
2024-02-16T23:25:43.713Z,97694.66
2024-02-16T23:28:13.696Z,97704.06
2024-02-16T23:30:41.201Z,97707.78
2024-02-16T23:33:09.137Z,97709.19
2024-02-16T23:35:35.895Z,97698.16
2024-02-16T23:38:04.069Z,97689.88
2024-02-16T23:40:31.291Z,97701.59
2024-02-16T23:42:57.916Z,97707.06
2024-02-16T23:45:25.018Z,97708.63
2024-02-16T23:47:54.727Z,97728.88
2024-02-16T23:50:21.412Z,97730.59
2024-02-16T23:52:48.062Z,97737.16
2024-02-16T23:55:14.753Z,97743.78
2024-02-16T23:57:41.753Z,97730.13
